Time;durP1;ratioP1;P1;durP2;ratioP2;P2;SDS_P1;SDS_P2;PMS_P1;PMS_P2;Temp;Humidity;BMP_temperature;BMP_pressure;BME280_temperature;BME280_humidity;BME280_pressure;Samples;Min_cycle;Max_cycle;Signal;HPM_P1;HPM_P2
2021/11/13 00:00:16;;;;;;;7.68;6.00;;;;;;;;;;5015411;28;20041;-59
2021/11/13 00:02:43;;;;;;;9.93;5.85;;;;;;;;;;5015428;28;20068;-60
2021/11/13 00:05:09;;;;;;;9.52;7.00;;;;;;;;;;5015987;28;20498;-61
2021/11/13 00:07:35;;;;;;;9.05;5.10;;;;;;;;;;5015805;28;20057;-61
2021/11/13 00:10:00;;;;;;;9.10;5.32;;;;;;;;;;5016398;28;20041;-62
2021/11/13 00:12:25;;;;;;;13.27;5.65;;;;;;;;;;5014324;28;20033;-61
2021/11/13 00:14:51;;;;;;;8.10;6.25;;;;;;;;;;5014623;28;20116;-61
2021/11/13 00:17:16;;;;;;;8.00;5.90;;;;;;;;;;5015945;28;20109;-61
2021/11/13 00:19:43;;;;;;;11.30;8.32;;;;;;;;;;5013385;28;20029;-61
2021/11/13 00:22:09;;;;;;;17.52;7.30;;;;;;;;;;5013854;28;20034;-61
2021/11/13 00:24:36;;;;;;;10.93;6.97;;;;;;;;;;5015256;28;20041;-61
2021/11/13 00:27:06;;;;;;;8.93;6.43;;;;;;;;;;5015423;28;20025;-61
2021/11/13 00:29:31;;;;;;;14.43;8.77;;;;;;;;;;5016747;28;20134;-60
2021/11/13 00:31:57;;;;;;;7.35;5.35;;;;;;;;;;5012920;28;20581;-62
2021/11/13 00:34:23;;;;;;;10.40;7.22;;;;;;;;;;5013002;28;20133;-61
2021/11/13 00:36:49;;;;;;;8.70;6.63;;;;;;;;;;5012743;28;20021;-61
2021/11/13 00:39:15;;;;;;;10.10;6.20;;;;;;;;;;5014654;28;20345;-60
2021/11/13 00:41:40;;;;;;;11.48;7.55;;;;;;;;;;5012372;28;20034;-58
2021/11/13 00:44:06;;;;;;;10.00;6.35;;;;;;;;;;5013003;28;20037;-57
2021/11/13 00:46:31;;;;;;;11.15;7.80;;;;;;;;;;5013390;28;20079;-57
2021/11/13 00:48:57;;;;;;;10.13;7.68;;;;;;;;;;5014945;28;20048;-59
2021/11/13 00:51:23;;;;;;;11.52;7.55;;;;;;;;;;5015652;28;20048;-59
2021/11/13 00:53:49;;;;;;;7.13;5.80;;;;;;;;;;5013210;28;20053;-58
2021/11/13 00:56:14;;;;;;;8.35;6.40;;;;;;;;;;5015240;28;20037;-59
2021/11/13 00:58:40;;;;;;;9.40;7.28;;;;;;;;;;5015772;28;20063;-61
2021/11/13 01:01:06;;;;;;;12.77;8.63;;;;;;;;;;5014633;28;20120;-62
2021/11/13 01:03:32;;;;;;;8.48;6.43;;;;;;;;;;5012062;28;20095;-62
2021/11/13 01:05:58;;;;;;;9.60;6.85;;;;;;;;;;5012930;28;20029;-62
2021/11/13 01:08:24;;;;;;;11.35;6.95;;;;;;;;;;5013531;28;20033;-61
2021/11/13 01:10:50;;;;;;;11.48;7.03;;;;;;;;;;5014156;28;20041;-61
2021/11/13 01:13:16;;;;;;;18.95;7.10;;;;;;;;;;5018458;28;20030;-61
2021/11/13 01:15:41;;;;;;;6.95;5.30;;;;;;;;;;5013715;28;20685;-62
2021/11/13 01:18:07;;;;;;;9.57;7.60;;;;;;;;;;5015828;28;20529;-61
2021/11/13 01:20:33;;;;;;;11.45;6.97;;;;;;;;;;5014799;28;20156;-61
2021/11/13 01:22:59;;;;;;;8.43;7.00;;;;;;;;;;5013868;28;20102;-61
2021/11/13 01:25:26;;;;;;;5.82;5.25;;;;;;;;;;5011448;28;20120;-62
2021/11/13 01:27:51;;;;;;;10.15;6.88;;;;;;;;;;5014826;28;20030;-61
2021/11/13 01:30:17;;;;;;;18.95;8.20;;;;;;;;;;5013572;28;20047;-61
2021/11/13 01:32:44;;;;;;;7.38;5.75;;;;;;;;;;5017125;28;20022;-62
2021/11/13 01:35:10;;;;;;;13.25;6.95;;;;;;;;;;5011015;28;20475;-61
2021/11/13 01:37:35;;;;;;;11.05;6.18;;;;;;;;;;5012231;28;20121;-61
2021/11/13 01:40:03;;;;;;;7.20;6.30;;;;;;;;;;5016870;28;20033;-62
2021/11/13 01:42:31;;;;;;;8.35;5.40;;;;;;;;;;5016745;28;20030;-61
2021/11/13 01:44:56;;;;;;;9.30;6.10;;;;;;;;;;5016993;28;20034;-62
2021/11/13 01:47:22;;;;;;;9.02;5.97;;;;;;;;;;5019228;28;20125;-63
2021/11/13 01:49:48;;;;;;;9.48;6.45;;;;;;;;;;5016022;28;20056;-62
2021/11/13 01:52:15;;;;;;;18.20;5.90;;;;;;;;;;5014996;28;20034;-62
2021/11/13 01:54:42;;;;;;;11.40;8.07;;;;;;;;;;5017384;28;20040;-61
2021/11/13 01:57:11;;;;;;;10.88;8.07;;;;;;;;;;5018525;28;20061;-62
2021/11/13 01:59:38;;;;;;;6.82;6.13;;;;;;;;;;5016014;28;20368;-63
2021/11/13 02:02:04;;;;;;;9.63;6.60;;;;;;;;;;5014738;28;20041;-63
2021/11/13 02:04:29;;;;;;;6.70;5.63;;;;;;;;;;5017954;28;20129;-62
2021/11/13 02:06:55;;;;;;;14.02;7.55;;;;;;;;;;5018176;28;20056;-63
2021/11/13 02:09:21;;;;;;;14.00;6.97;;;;;;;;;;5018793;28;20030;-62
2021/11/13 02:11:46;;;;;;;20.58;7.90;;;;;;;;;;5020795;28;20079;-63
2021/11/13 02:14:11;;;;;;;12.50;7.95;;;;;;;;;;5017010;28;20432;-63
2021/11/13 02:16:37;;;;;;;9.20;7.03;;;;;;;;;;5015335;28;20913;-63
2021/11/13 02:19:02;;;;;;;8.88;6.97;;;;;;;;;;5017750;28;20043;-63
2021/11/13 02:21:28;;;;;;;9.70;7.38;;;;;;;;;;5015730;28;20040;-62
2021/11/13 02:23:54;;;;;;;11.75;6.50;;;;;;;;;;5015646;28;20065;-63
2021/11/13 02:26:21;;;;;;;11.13;8.07;;;;;;;;;;5017474;28;20107;-62
2021/11/13 02:28:47;;;;;;;14.20;7.13;;;;;;;;;;5012561;28;20030;-62
2021/11/13 02:31:12;;;;;;;8.93;6.45;;;;;;;;;;5017163;28;20060;-62
2021/11/13 02:33:39;;;;;;;9.23;6.68;;;;;;;;;;5020279;28;20029;-62
2021/11/13 02:36:07;;;;;;;11.55;6.78;;;;;;;;;;5016951;28;20030;-62
2021/11/13 02:38:36;;;;;;;12.48;7.18;;;;;;;;;;5018875;28;20040;-62
2021/11/13 02:41:04;;;;;;;7.95;6.55;;;;;;;;;;5018872;28;20053;-63
2021/11/13 02:43:32;;;;;;;12.10;6.78;;;;;;;;;;5015732;28;20036;-62
2021/11/13 02:45:59;;;;;;;22.70;7.03;;;;;;;;;;5014235;28;20026;-62
2021/11/13 02:48:26;;;;;;;9.93;6.15;;;;;;;;;;5013024;28;20033;-63
2021/11/13 02:50:52;;;;;;;12.63;6.78;;;;;;;;;;5015608;28;20049;-62
2021/11/13 02:53:21;;;;;;;8.95;6.65;;;;;;;;;;5015587;28;20050;-62
2021/11/13 02:55:49;;;;;;;17.73;8.10;;;;;;;;;;5017431;28;20029;-63
2021/11/13 02:58:14;;;;;;;10.52;7.57;;;;;;;;;;5017106;28;20084;-63
2021/11/13 03:00:41;;;;;;;9.35;7.15;;;;;;;;;;5014511;28;20053;-63
2021/11/13 03:03:06;;;;;;;7.75;6.82;;;;;;;;;;5018715;28;20035;-63
2021/11/13 03:05:44;;;;;;;30.02;8.70;;;;;;;;;;5015140;28;20452;-63
2021/11/13 03:08:09;;;;;;;7.63;6.47;;;;;;;;;;5011567;28;20454;-63
2021/11/13 03:10:36;;;;;;;12.52;8.45;;;;;;;;;;5013117;28;20029;-63
2021/11/13 03:13:03;;;;;;;17.75;7.22;;;;;;;;;;5019648;28;20454;-63
2021/11/13 03:15:29;;;;;;;6.68;5.95;;;;;;;;;;5017822;28;20041;-62
2021/11/13 03:17:56;;;;;;;10.88;8.10;;;;;;;;;;5014851;28;20091;-62
2021/11/13 03:20:26;;;;;;;9.52;6.15;;;;;;;;;;5013378;28;20038;-63
2021/11/13 03:22:52;;;;;;;7.60;6.80;;;;;;;;;;5012908;28;20430;-62
2021/11/13 03:25:24;;;;;;;14.15;8.43;;;;;;;;;;5014106;28;20107;-63
2021/11/13 03:27:51;;;;;;;;;;;;;;;;;;5015807;28;20072;-63
2021/11/13 03:30:17;;;;;;;17.13;8.77;;;;;;;;;;5015005;28;19917;-62
2021/11/13 03:32:43;;;;;;;11.27;8.35;;;;;;;;;;5015550;28;20101;-62
2021/11/13 03:35:09;;;;;;;12.82;8.30;;;;;;;;;;5012215;28;20121;-62
2021/11/13 03:37:35;;;;;;;10.65;6.72;;;;;;;;;;5014484;28;20045;-62
2021/11/13 03:40:02;;;;;;;7.53;6.05;;;;;;;;;;5015404;28;20052;-62
2021/11/13 03:42:29;;;;;;;18.48;7.40;;;;;;;;;;5017584;28;20209;-62
2021/11/13 03:44:56;;;;;;;10.65;6.75;;;;;;;;;;5013623;28;20040;-62
2021/11/13 03:47:21;;;;;;;10.30;7.28;;;;;;;;;;5016416;28;20060;-61
2021/11/13 03:49:47;;;;;;;11.85;8.10;;;;;;;;;;5016290;28;20037;-61
2021/11/13 03:52:12;;;;;;;6.85;6.05;;;;;;;;;;5015506;28;20018;-62
2021/11/13 03:54:38;;;;;;;10.13;6.32;;;;;;;;;;5019945;28;20057;-61
2021/11/13 03:57:04;;;;;;;10.52;6.72;;;;;;;;;;5015961;28;20033;-62
2021/11/13 03:59:30;;;;;;;12.25;7.35;;;;;;;;;;5014776;28;20110;-62
2021/11/13 04:01:56;;;;;;;11.93;6.53;;;;;;;;;;5017082;28;20034;-62
2021/11/13 04:04:21;;;;;;;8.27;6.35;;;;;;;;;;5017426;28;20057;-62
2021/11/13 04:06:47;;;;;;;8.95;6.45;;;;;;;;;;5012779;28;20064;-62
2021/11/13 04:09:12;;;;;;;6.72;5.38;;;;;;;;;;5017621;28;20900;-62
2021/11/13 04:11:38;;;;;;;10.77;6.78;;;;;;;;;;5015639;28;20376;-62
2021/11/13 04:14:03;;;;;;;10.18;6.32;;;;;;;;;;5012521;28;20116;-62
2021/11/13 04:16:28;;;;;;;9.15;5.63;;;;;;;;;;5014081;28;20068;-62
2021/11/13 04:18:54;;;;;;;10.02;6.95;;;;;;;;;;5016006;28;20180;-61
2021/11/13 04:21:20;;;;;;;7.90;4.57;;;;;;;;;;5016020;28;20064;-62
2021/11/13 04:23:45;;;;;;;14.38;6.88;;;;;;;;;;5015005;28;20033;-62
2021/11/13 04:26:11;;;;;;;12.70;6.55;;;;;;;;;;5013992;28;20034;-62
2021/11/13 04:28:37;;;;;;;9.48;6.68;;;;;;;;;;5013860;28;20029;-61
2021/11/13 04:31:03;;;;;;;12.02;6.93;;;;;;;;;;5013815;28;20564;-62
2021/11/13 04:33:29;;;;;;;9.15;6.32;;;;;;;;;;5013291;28;20026;-62
2021/11/13 04:38:31;;;;;;;8.20;5.97;;;;;;;;;;5014384;28;20021;-62
2021/11/13 04:40:59;;;;;;;11.30;6.43;;;;;;;;;;4999762;28;20635;-62
2021/11/13 04:43:24;;;;;;;10.95;7.82;;;;;;;;;;5015751;28;20038;-61
2021/11/13 04:45:49;;;;;;;9.00;6.60;;;;;;;;;;5014339;28;20075;-58
2021/11/13 04:48:15;;;;;;;10.85;6.40;;;;;;;;;;5014083;28;20121;-58
2021/11/13 04:50:40;;;;;;;8.60;5.88;;;;;;;;;;5014289;28;20033;-59
2021/11/13 04:53:06;;;;;;;10.27;7.20;;;;;;;;;;5014530;28;20065;-58
2021/11/13 04:55:33;;;;;;;12.20;7.53;;;;;;;;;;5015209;28;20029;-59
2021/11/13 04:57:59;;;;;;;6.50;5.65;;;;;;;;;;5012973;28;20044;-59
2021/11/13 05:00:28;;;;;;;11.98;6.53;;;;;;;;;;5000158;28;20076;-59
2021/11/13 05:02:54;;;;;;;8.15;5.90;;;;;;;;;;5012917;28;20034;-59
2021/11/13 05:05:21;;;;;;;9.02;7.07;;;;;;;;;;5014599;28;20048;-59
2021/11/13 05:07:46;;;;;;;8.10;5.10;;;;;;;;;;5014807;28;20033;-59
2021/11/13 05:10:13;;;;;;;12.90;8.73;;;;;;;;;;5015461;28;20033;-59
2021/11/13 05:12:39;;;;;;;12.98;7.57;;;;;;;;;;5015522;28;20105;-59
2021/11/13 05:15:06;;;;;;;9.02;6.63;;;;;;;;;;5016169;28;20419;-59
2021/11/13 05:17:31;;;;;;;9.80;7.38;;;;;;;;;;5017072;28;20034;-59
2021/11/13 05:19:57;;;;;;;13.25;6.90;;;;;;;;;;5021195;28;20486;-59
2021/11/13 05:22:23;;;;;;;9.15;5.82;;;;;;;;;;5021927;28;20034;-59
2021/11/13 05:24:49;;;;;;;6.22;5.07;;;;;;;;;;5019368;28;20084;-59
2021/11/13 05:27:14;;;;;;;9.90;7.18;;;;;;;;;;5016476;28;20042;-59
2021/11/13 05:29:39;;;;;;;5.72;4.47;;;;;;;;;;5017487;28;20447;-58
2021/11/13 05:32:05;;;;;;;9.63;7.38;;;;;;;;;;5016715;28;20090;-58
2021/11/13 05:34:31;;;;;;;9.18;6.70;;;;;;;;;;5019269;28;20026;-59
2021/11/13 05:36:56;;;;;;;9.15;6.13;;;;;;;;;;5017869;28;20045;-58
2021/11/13 05:39:22;;;;;;;14.00;7.72;;;;;;;;;;5017219;28;20037;-59
2021/11/13 05:41:47;;;;;;;7.93;5.93;;;;;;;;;;5016418;28;20507;-60
2021/11/13 05:44:13;;;;;;;10.85;5.60;;;;;;;;;;5017687;28;20078;-58
2021/11/13 05:46:38;;;;;;;10.40;6.07;;;;;;;;;;5014990;28;20037;-58
2021/11/13 05:49:04;;;;;;;13.45;6.32;;;;;;;;;;5016203;28;20030;-58
2021/11/13 05:51:29;;;;;;;9.05;5.03;;;;;;;;;;5017702;28;20037;-58
2021/11/13 05:53:55;;;;;;;10.48;6.80;;;;;;;;;;5017165;28;20018;-58
2021/11/13 05:56:20;;;;;;;10.65;7.82;;;;;;;;;;5016549;28;20645;-58
2021/11/13 05:58:45;;;;;;;8.45;6.95;;;;;;;;;;5014557;28;20026;-58
2021/11/13 06:01:11;;;;;;;8.00;6.40;;;;;;;;;;5015998;28;20029;-58
2021/11/13 06:03:36;;;;;;;11.15;5.82;;;;;;;;;;5017798;28;20261;-58
2021/11/13 06:06:02;;;;;;;8.38;6.88;;;;;;;;;;5016745;28;20353;-58
2021/11/13 06:08:27;;;;;;;7.63;5.18;;;;;;;;;;5015402;28;20042;-58
2021/11/13 06:10:52;;;;;;;7.57;6.13;;;;;;;;;;5019918;28;20026;-58
2021/11/13 06:13:18;;;;;;;6.07;4.95;;;;;;;;;;5014923;28;20029;-57
2021/11/13 06:15:43;;;;;;;9.38;6.95;;;;;;;;;;5018342;28;20384;-58
2021/11/13 06:18:09;;;;;;;7.38;5.72;;;;;;;;;;5013950;28;20037;-58
2021/11/13 06:20:34;;;;;;;9.40;5.97;;;;;;;;;;5018496;28;20022;-58
2021/11/13 06:23:00;;;;;;;7.72;6.13;;;;;;;;;;5016455;28;20402;-58
2021/11/13 06:25:25;;;;;;;6.30;4.85;;;;;;;;;;5012512;28;20056;-58
2021/11/13 06:27:51;;;;;;;9.15;5.80;;;;;;;;;;5015990;28;20080;-58
2021/11/13 06:30:17;;;;;;;11.10;6.32;;;;;;;;;;5015350;28;20045;-58
2021/11/13 06:32:45;;;;;;;6.43;5.82;;;;;;;;;;5018378;28;20030;-58
2021/11/13 06:35:12;;;;;;;12.13;5.90;;;;;;;;;;5021730;28;20049;-58
2021/11/13 06:37:39;;;;;;;5.78;4.88;;;;;;;;;;5033758;28;20038;-58
2021/11/13 06:40:06;;;;;;;10.55;6.13;;;;;;;;;;5015296;28;20037;-57
2021/11/13 06:42:32;;;;;;;6.28;5.15;;;;;;;;;;5014412;28;20482;-58
2021/11/13 06:44:57;;;;;;;8.15;6.13;;;;;;;;;;5010877;28;20041;-59
2021/11/13 06:47:22;;;;;;;8.60;6.47;;;;;;;;;;5016891;28;20036;-58
2021/11/13 06:49:48;;;;;;;6.72;5.97;;;;;;;;;;5015880;28;20729;-61
2021/11/13 06:52:13;;;;;;;8.73;5.40;;;;;;;;;;5014438;28;20076;-62
2021/11/13 06:54:39;;;;;;;11.85;6.55;;;;;;;;;;5010523;28;20054;-63
2021/11/13 06:57:05;;;;;;;8.50;5.90;;;;;;;;;;5014669;28;20099;-63
2021/11/13 06:59:31;;;;;;;10.07;7.43;;;;;;;;;;5013535;28;20592;-62
2021/11/13 07:01:56;;;;;;;13.20;5.70;;;;;;;;;;5016842;28;20060;-63
2021/11/13 07:04:22;;;;;;;8.35;5.95;;;;;;;;;;5014008;28;20052;-62
2021/11/13 07:06:47;;;;;;;6.50;5.90;;;;;;;;;;5019460;28;20053;-62
2021/11/13 07:09:13;;;;;;;8.77;5.57;;;;;;;;;;5015625;28;20049;-61
2021/11/13 07:11:39;;;;;;;7.35;6.18;;;;;;;;;;5015132;28;20033;-62
2021/11/13 07:14:04;;;;;;;12.23;7.50;;;;;;;;;;5013961;28;20033;-57
2021/11/13 07:16:29;;;;;;;5.65;4.28;;;;;;;;;;5013580;28;20038;-59
2021/11/13 07:18:55;;;;;;;7.43;5.40;;;;;;;;;;5015035;28;20025;-58
2021/11/13 07:21:20;;;;;;;5.93;5.22;;;;;;;;;;5018677;28;20498;-62
2021/11/13 07:23:46;;;;;;;9.10;5.57;;;;;;;;;;5015608;28;20183;-63
2021/11/13 07:26:13;;;;;;;9.75;5.78;;;;;;;;;;5015286;28;20037;-58
2021/11/13 07:28:41;;;;;;;11.90;6.25;;;;;;;;;;4994445;28;20157;-58
2021/11/13 07:31:08;;;;;;;12.32;7.25;;;;;;;;;;5015985;28;20641;-59
2021/11/13 07:33:34;;;;;;;8.15;5.90;;;;;;;;;;5012156;28;20460;-58
2021/11/13 07:35:59;;;;;;;9.48;5.55;;;;;;;;;;5014790;28;20109;-58
2021/11/13 07:38:25;;;;;;;11.02;5.18;;;;;;;;;;5013964;28;20061;-58
2021/11/13 07:40:51;;;;;;;6.32;5.18;;;;;;;;;;4999974;28;20486;-58
2021/11/13 07:43:16;;;;;;;8.75;6.47;;;;;;;;;;5013036;28;20410;-58
2021/11/13 07:45:42;;;;;;;10.88;6.93;;;;;;;;;;5012588;28;20038;-58
2021/11/13 07:48:08;;;;;;;9.93;4.88;;;;;;;;;;5018826;28;20366;-58
2021/11/13 07:50:35;;;;;;;7.90;5.30;;;;;;;;;;5015925;28;20478;-58
2021/11/13 07:53:10;;;;;;;13.23;6.32;;;;;;;;;;5012007;28;20057;-58
2021/11/13 07:55:37;;;;;;;11.75;5.00;;;;;;;;;;5015014;28;20037;-58
2021/11/13 07:58:03;;;;;;;11.15;5.60;;;;;;;;;;5016087;28;20041;-58
2021/11/13 08:00:29;;;;;;;9.40;5.50;;;;;;;;;;5013564;28;20140;-58
2021/11/13 08:02:55;;;;;;;5.95;4.75;;;;;;;;;;5012509;28;20037;-59
2021/11/13 08:05:22;;;;;;;12.27;6.32;;;;;;;;;;5015099;28;20037;-58
2021/11/13 08:07:48;;;;;;;7.60;5.82;;;;;;;;;;5016171;28;20033;-58
2021/11/13 08:10:15;;;;;;;11.13;7.72;;;;;;;;;;5014026;28;20507;-58
2021/11/13 08:12:41;;;;;;;7.30;5.35;;;;;;;;;;5016488;28;20048;-57
2021/11/13 08:15:09;;;;;;;12.13;6.30;;;;;;;;;;5013935;28;20042;-55
2021/11/13 08:17:35;;;;;;;13.50;7.55;;;;;;;;;;5013667;28;20030;-59
2021/11/13 08:20:01;;;;;;;12.25;6.63;;;;;;;;;;5017161;28;20048;-57
2021/11/13 08:22:26;;;;;;;9.70;6.43;;;;;;;;;;5015409;28;20037;-58
2021/11/13 08:24:51;;;;;;;6.10;5.47;;;;;;;;;;5016363;28;20033;-59
2021/11/13 08:27:17;;;;;;;5.53;4.55;;;;;;;;;;5014484;28;20053;-59
2021/11/13 08:29:43;;;;;;;6.63;5.95;;;;;;;;;;5015218;28;20037;-57
2021/11/13 08:32:08;;;;;;;9.60;5.47;;;;;;;;;;5015340;28;20033;-57
2021/11/13 08:34:35;;;;;;;8.52;5.30;;;;;;;;;;5013770;28;20482;-58
2021/11/13 08:37:01;;;;;;;8.52;5.47;;;;;;;;;;5011724;28;20036;-57
2021/11/13 08:39:29;;;;;;;6.57;4.75;;;;;;;;;;5012192;28;20037;-56
2021/11/13 08:41:55;;;;;;;17.80;6.47;;;;;;;;;;5015797;28;20032;-58
2021/11/13 08:44:20;;;;;;;7.72;5.82;;;;;;;;;;5014071;28;20463;-56
2021/11/13 08:46:45;;;;;;;8.68;5.93;;;;;;;;;;5012826;28;20025;-57
2021/11/13 08:49:11;;;;;;;7.53;5.60;;;;;;;;;;5010753;28;20041;-57
2021/11/13 08:51:36;;;;;;;13.93;7.10;;;;;;;;;;5016636;28;20037;-59
2021/11/13 08:54:02;;;;;;;5.28;4.78;;;;;;;;;;5017803;28;20096;-58
2021/11/13 08:56:30;;;;;;;6.22;5.38;;;;;;;;;;5016844;28;20076;-57
2021/11/13 08:58:57;;;;;;;9.10;5.68;;;;;;;;;;5018169;28;20026;-58
2021/11/13 09:01:26;;;;;;;6.45;5.35;;;;;;;;;;5019636;28;20034;-58
2021/11/13 09:03:53;;;;;;;7.47;5.57;;;;;;;;;;5018679;28;20612;-58
2021/11/13 09:06:22;;;;;;;7.32;4.93;;;;;;;;;;5017238;28;20044;-58
2021/11/13 09:08:48;;;;;;;7.00;5.55;;;;;;;;;;5019441;28;20026;-57
2021/11/13 09:11:17;;;;;;;9.20;5.63;;;;;;;;;;5017044;28;20474;-57
2021/11/13 09:13:43;;;;;;;7.80;5.43;;;;;;;;;;5018674;28;20101;-55
2021/11/13 09:16:10;;;;;;;4.97;3.85;;;;;;;;;;5018082;28;20038;-57
2021/11/13 09:18:36;;;;;;;6.03;5.22;;;;;;;;;;5015243;28;20386;-57
2021/11/13 09:21:03;;;;;;;12.55;6.07;;;;;;;;;;5017883;28;20033;-57
2021/11/13 09:23:29;;;;;;;5.38;4.55;;;;;;;;;;5018461;28;20026;-57
2021/11/13 09:25:54;;;;;;;7.90;6.10;;;;;;;;;;5017627;28;20521;-57
2021/11/13 09:28:20;;;;;;;7.60;5.80;;;;;;;;;;5014505;28;20052;-58
2021/11/13 09:30:46;;;;;;;9.68;5.10;;;;;;;;;;5017682;28;20136;-57
2021/11/13 09:33:13;;;;;;;6.20;4.43;;;;;;;;;;5016329;28;20582;-59
2021/11/13 09:35:42;;;;;;;3.92;3.53;;;;;;;;;;5012581;28;20049;-57
2021/11/13 09:38:08;;;;;;;6.45;5.05;;;;;;;;;;5016846;28;20249;-57
2021/11/13 09:40:34;;;;;;;9.65;5.53;;;;;;;;;;5016600;28;20601;-58
2021/11/13 09:43:02;;;;;;;9.25;4.88;;;;;;;;;;5016118;28;20057;-59
2021/11/13 09:45:29;;;;;;;12.15;6.00;;;;;;;;;;5015564;28;20040;-59
2021/11/13 09:47:56;;;;;;;9.20;5.47;;;;;;;;;;5017150;28;20164;-58
2021/11/13 09:50:25;;;;;;;7.93;5.28;;;;;;;;;;5017300;28;20037;-60
2021/11/13 09:52:51;;;;;;;6.00;4.82;;;;;;;;;;5016480;28;20026;-58
2021/11/13 09:55:19;;;;;;;7.05;4.85;;;;;;;;;;5016663;28;20030;-59
2021/11/13 09:57:46;;;;;;;6.25;4.78;;;;;;;;;;5015942;28;20033;-58
2021/11/13 10:00:17;;;;;;;6.40;4.95;;;;;;;;;;5020223;28;20040;-60
2021/11/13 10:02:42;;;;;;;;;;;;;;;;;;5015487;28;20033;-58
2021/11/13 10:05:10;;;;;;;10.45;5.45;;;;;;;;;;5017629;28;19920;-59
2021/11/13 10:07:36;;;;;;;6.20;5.32;;;;;;;;;;5018268;28;20404;-58
2021/11/13 10:10:07;;;;;;;6.68;5.32;;;;;;;;;;5018436;28;20025;-59
2021/11/13 10:12:36;;;;;;;;;;;;;;;;;;5016225;28;20041;-58
2021/11/13 10:15:32;;;;;;;10.60;4.88;;;;;;;;;;5017031;28;19935;-59
2021/11/13 10:18:39;;;;;;;5.93;5.32;;;;;;;;;;5018648;28;20396;-57
2021/11/13 10:21:10;;;;;;;6.18;5.15;;;;;;;;;;4993210;28;20443;-59
2021/11/13 10:23:48;;;;;;;6.72;5.57;;;;;;;;;;4977676;28;20030;-59
2021/11/13 10:26:41;;;;;;;8.75;6.18;;;;;;;;;;5012115;28;20041;-59
2021/11/13 10:29:10;;;;;;;8.35;5.78;;;;;;;;;;5012801;28;20042;-59
2021/11/13 10:31:40;;;;;;;6.38;5.15;;;;;;;;;;5017953;28;20041;-58
2021/11/13 10:34:11;;;;;;;6.97;5.75;;;;;;;;;;5019902;28;20026;-57
2021/11/13 10:36:40;;;;;;;8.40;5.05;;;;;;;;;;5019092;28;20051;-57
2021/11/13 10:39:10;;;;;;;6.53;4.85;;;;;;;;;;5018001;28;20041;-57
2021/11/13 10:41:42;;;;;;;7.25;6.55;;;;;;;;;;5014487;28;20364;-57
2021/11/13 10:44:07;;;;;;;;;;;;;;;;;;5020651;28;20691;-57
2021/11/13 10:46:32;;;;;;;6.35;4.38;;;;;;;;;;5016597;28;19959;-57
2021/11/13 10:48:59;;;;;;;6.55;4.55;;;;;;;;;;5014696;28;20028;-57
2021/11/13 10:51:33;;;;;;;8.00;6.03;;;;;;;;;;5015892;28;20077;-57
2021/11/13 10:54:10;;;;;;;6.75;4.53;;;;;;;;;;5018763;28;20057;-57
2021/11/13 10:56:45;;;;;;;13.30;5.45;;;;;;;;;;5014477;28;20041;-57
2021/11/13 10:59:11;;;;;;;6.10;5.05;;;;;;;;;;5016300;28;20049;-57
2021/11/13 11:01:48;;;;;;;8.40;5.72;;;;;;;;;;5016317;28;20422;-57
2021/11/13 11:04:25;;;;;;;6.22;4.75;;;;;;;;;;5016509;28;20045;-58
2021/11/13 11:07:03;;;;;;;10.23;5.70;;;;;;;;;;5014897;28;20029;-57
2021/11/13 11:09:32;;;;;;;5.05;4.05;;;;;;;;;;5014401;28;20049;-57
2021/11/13 11:12:00;;;;;;;6.32;5.47;;;;;;;;;;5016006;28;20175;-57
2021/11/13 11:14:28;;;;;;;10.13;6.00;;;;;;;;;;5016773;28;20048;-57
2021/11/13 11:16:58;;;;;;;9.20;6.40;;;;;;;;;;5013874;28;20083;-57
2021/11/13 11:19:30;;;;;;;8.70;5.85;;;;;;;;;;5014094;28;20113;-57
2021/11/13 11:21:59;;;;;;;8.60;5.50;;;;;;;;;;5014685;28;20366;-57
2021/11/13 11:24:29;;;;;;;11.75;6.55;;;;;;;;;;5013292;28;20455;-61
2021/11/13 11:27:07;;;;;;;11.90;7.60;;;;;;;;;;5012829;28;20107;-60
2021/11/13 11:29:44;;;;;;;6.13;5.22;;;;;;;;;;5008683;28;20038;-58
2021/11/13 11:32:14;;;;;;;9.20;5.60;;;;;;;;;;5012151;28;20064;-58
2021/11/13 11:34:41;;;;;;;7.53;5.78;;;;;;;;;;5016295;28;20030;-58
2021/11/13 11:37:14;;;;;;;5.45;4.47;;;;;;;;;;5013561;28;20026;-57
2021/11/13 11:39:42;;;;;;;5.30;4.80;;;;;;;;;;5014387;28;20494;-57
2021/11/13 11:42:08;;;;;;;6.95;5.50;;;;;;;;;;5015439;28;20735;-57
2021/11/13 11:44:38;;;;;;;10.63;5.03;;;;;;;;;;5012805;28;20136;-57
2021/11/13 11:47:15;;;;;;;7.03;5.43;;;;;;;;;;5014936;28;20547;-59
2021/11/13 11:49:45;;;;;;;8.15;5.97;;;;;;;;;;5018949;28;20069;-59
2021/11/13 11:52:11;;;;;;;5.90;5.00;;;;;;;;;;5014501;28;20451;-59
2021/11/13 11:54:37;;;;;;;5.38;4.85;;;;;;;;;;5017237;28;20038;-61
2021/11/13 11:57:03;;;;;;;5.53;4.97;;;;;;;;;;5012368;28;20371;-60
2021/11/13 11:59:29;;;;;;;7.82;6.50;;;;;;;;;;5014218;28;20151;-60
2021/11/13 12:02:12;;;;;;;6.07;5.40;;;;;;;;;;5015559;28;20029;-61
2021/11/13 12:04:38;;;;;;;7.88;5.05;;;;;;;;;;5016064;28;20048;-61
2021/11/13 12:07:05;;;;;;;5.15;4.65;;;;;;;;;;5014001;28;20095;-61
2021/11/13 12:09:31;;;;;;;5.55;4.88;;;;;;;;;;5013937;28;20021;-61
2021/11/13 12:12:21;;;;;;;7.28;6.25;;;;;;;;;;5017002;28;20022;-61
2021/11/13 12:14:47;;;;;;;5.43;4.90;;;;;;;;;;5015234;28;20033;-62
2021/11/13 12:17:27;;;;;;;5.53;4.78;;;;;;;;;;5016688;28;20041;-61
2021/11/13 12:20:05;;;;;;;7.47;6.10;;;;;;;;;;5012166;28;20030;-62
2021/11/13 12:22:48;;;;;;;6.82;4.47;;;;;;;;;;5012358;28;20299;-61
2021/11/13 12:25:17;;;;;;;8.70;6.75;;;;;;;;;;5015434;28;20033;-59
2021/11/13 12:28:08;;;;;;;23.55;5.78;;;;;;;;;;5013923;28;20049;-59
2021/11/13 12:30:39;;;;;;;10.90;6.28;;;;;;;;;;5012695;28;20052;-58
2021/11/13 12:33:25;;;;;;;;;;;;;;;;;;5016201;28;20036;-59
2021/11/13 12:35:51;;;;;;;6.75;5.03;;;;;;;;;;5018241;28;19988;-59
2021/11/13 12:38:37;;;;;;;5.80;5.20;;;;;;;;;;5013228;28;20036;-63
2021/11/13 12:41:25;;;;;;;7.95;6.95;;;;;;;;;;5013193;28;20025;-63
2021/11/13 12:43:51;;;;;;;6.43;5.03;;;;;;;;;;5013635;28;20124;-59
2021/11/13 12:46:45;;;;;;;6.35;5.75;;;;;;;;;;5016914;28;20263;-59
2021/11/13 12:49:22;;;;;;;4.95;4.45;;;;;;;;;;5013611;28;20064;-60
2021/11/13 12:51:50;;;;;;;7.28;5.45;;;;;;;;;;5015203;28;20030;-59
2021/11/13 12:54:25;;;;;;;6.40;5.22;;;;;;;;;;5016157;28;20465;-59
2021/11/13 12:56:57;;;;;;;6.47;5.80;;;;;;;;;;5013922;28;20056;-59
2021/11/13 12:59:26;;;;;;;7.18;6.15;;;;;;;;;;5013137;28;20434;-59
2021/11/13 13:01:55;;;;;;;7.15;5.57;;;;;;;;;;5011459;28;20356;-59
2021/11/13 13:04:21;;;;;;;6.57;5.47;;;;;;;;;;5011422;28;20046;-59
2021/11/13 13:06:48;;;;;;;7.03;6.05;;;;;;;;;;5010333;28;20056;-59
2021/11/13 13:09:15;;;;;;;5.78;5.00;;;;;;;;;;5016788;28;20033;-59
2021/11/13 13:11:57;;;;;;;6.63;5.15;;;;;;;;;;5016184;28;20076;-58
2021/11/13 13:14:34;;;;;;;6.55;5.07;;;;;;;;;;5014757;28;20026;-59
2021/11/13 13:17:02;;;;;;;8.43;6.55;;;;;;;;;;5012934;28;20455;-59
2021/11/13 13:19:46;;;;;;;6.38;4.97;;;;;;;;;;5014233;28;20066;-61
2021/11/13 13:22:11;;;;;;;8.48;5.13;;;;;;;;;;5013904;28;20066;-62
2021/11/13 13:24:38;;;;;;;7.28;5.03;;;;;;;;;;5017430;28;20399;-59
2021/11/13 13:27:10;;;;;;;7.68;5.47;;;;;;;;;;5010617;28;20077;-62
2021/11/13 13:29:37;;;;;;;7.35;5.45;;;;;;;;;;5018143;28;20071;-62
2021/11/13 13:32:04;;;;;;;8.13;6.68;;;;;;;;;;5013365;28;20061;-62
2021/11/13 13:34:31;;;;;;;7.15;5.47;;;;;;;;;;5012206;28;20038;-59
2021/11/13 13:37:10;;;;;;;5.03;4.07;;;;;;;;;;5013529;28;20030;-58
2021/11/13 13:39:36;;;;;;;5.55;5.05;;;;;;;;;;5019608;28;20022;-59
2021/11/13 13:42:01;;;;;;;6.18;5.25;;;;;;;;;;5019412;28;20037;-58
2021/11/13 13:44:26;;;;;;;7.75;5.70;;;;;;;;;;5017819;28;20064;-63
2021/11/13 13:46:52;;;;;;;6.20;5.47;;;;;;;;;;5021620;28;20355;-64
2021/11/13 13:49:18;;;;;;;5.45;4.93;;;;;;;;;;5017002;28;20029;-63
2021/11/13 13:51:51;;;;;;;6.25;5.63;;;;;;;;;;5020071;28;20657;-63
2021/11/13 13:54:20;;;;;;;6.60;5.10;;;;;;;;;;5014355;28;20041;-64
2021/11/13 13:56:57;;;;;;;6.75;5.75;;;;;;;;;;5017909;28;20032;-59
2021/11/13 13:59:34;;;;;;;8.15;6.35;;;;;;;;;;5015399;28;20356;-59
2021/11/13 14:02:15;;;;;;;9.23;6.93;;;;;;;;;;5013421;28;20159;-58
2021/11/13 14:04:50;;;;;;;5.80;4.85;;;;;;;;;;5015449;28;20544;-59
2021/11/13 14:07:22;;;;;;;8.02;6.53;;;;;;;;;;5017726;28;20041;-59
2021/11/13 14:10:04;;;;;;;8.68;6.90;;;;;;;;;;5014842;28;20371;-59
2021/11/13 14:12:54;;;;;;;6.55;5.50;;;;;;;;;;5017443;28;20034;-60
2021/11/13 14:15:22;;;;;;;6.47;5.78;;;;;;;;;;5017666;28;20037;-60
2021/11/13 14:17:56;;;;;;;5.93;4.68;;;;;;;;;;5001728;28;20061;-60
2021/11/13 14:20:24;;;;;;;6.78;5.47;;;;;;;;;;5018403;28;20029;-60
2021/11/13 14:23:02;;;;;;;7.47;6.32;;;;;;;;;;5019415;28;20037;-59
2021/11/13 14:25:30;;;;;;;8.07;5.57;;;;;;;;;;5019180;28;20033;-64
2021/11/13 14:27:56;;;;;;;8.60;6.47;;;;;;;;;;5016075;28;20530;-63
2021/11/13 14:30:22;;;;;;;12.98;5.82;;;;;;;;;;5015934;28;20400;-62
2021/11/13 14:32:57;;;;;;;6.45;5.28;;;;;;;;;;5016676;28;20073;-63
2021/11/13 14:35:24;;;;;;;5.70;5.00;;;;;;;;;;5017700;28;20040;-63
2021/11/13 14:37:51;;;;;;;8.15;5.63;;;;;;;;;;5020908;28;20049;-63
2021/11/13 14:40:17;;;;;;;8.88;5.78;;;;;;;;;;5018109;28;20037;-62
2021/11/13 14:42:44;;;;;;;7.65;6.20;;;;;;;;;;5019113;28;20155;-62
2021/11/13 14:45:09;;;;;;;15.43;8.90;;;;;;;;;;5018997;28;20117;-60
2021/11/13 14:47:40;;;;;;;15.15;8.75;;;;;;;;;;5018651;28;20116;-63